Akron, Colorado
Current Conditions -  °F | °C
As of 4:53 AM on Monday 22 Dec 2014 (Local Time) from KAKO Reporting Station
Broken Clouds Broken Clouds  
Wind Chill: 22°   Ceiling: 11000
Heat Index: 32°   Visibility: 10mi
Dew Point: 26°   Wind: 15mph
Humidity: 79%   Direction: 320°NW
Pressure: 29.7"   Gusts: NA
Location:  40.16°N, 103.21°W
Report Text: KAKO 221153Z AUTO 32013KT 10SM FEW037 SCT095 BKN110 00/M03 A2970 RMK AO2 SLP061 60001 70003 T00001033 10022 21011 53012
Loading
Personal Weather Stations






























Interactive Weather Map New forecast layout! Learn more

10-Day Weather Forecast

Advertisements
Track Severe Weather on mobile